Highland, New York
Current Conditions -  °F | °C
As of 3:53 PM on Friday 21 Nov 2014 (Local Time) from KPOU Reporting Station
Clear Clear  
Wind Chill: 26°   Ceiling: Unl
Heat Index: 33°   Visibility: 10mi
Dew Point:   Wind: 8mph
Humidity: 35%   Direction: 330°NNW
Pressure: 30.36"   Gusts: NA
Location:  41.72°N, 73.96°W
Report Text: KPOU 212053Z 33007KT 10SM CLR 01/M13 A3036 RMK AO2 SLP279 T00061133 53028
Loading
Personal Weather Stations






























Interactive Weather Map New forecast layout! Learn more

10-Day Weather Forecast

Advertisements
Track Severe Weather on mobile